sensor_id;sensor_type;location;lat;lon;timestamp;P1;durP1;ratioP1;P2;durP2;ratioP2
1831;SDS011;1680;48.106;11.708;2023-07-29T00:00:51;3.53;;;2.93;;
1831;SDS011;1680;48.106;11.708;2023-07-29T00:03:18;3.50;;;3.20;;
1831;SDS011;1680;48.106;11.708;2023-07-29T00:05:45;3.80;;;2.73;;
1831;SDS011;1680;48.106;11.708;2023-07-29T00:08:12;3.17;;;2.87;;
1831;SDS011;1680;48.106;11.708;2023-07-29T00:10:39;3.20;;;2.93;;
1831;SDS011;1680;48.106;11.708;2023-07-29T00:13:07;4.20;;;2.73;;
1831;SDS011;1680;48.106;11.708;2023-07-29T00:15:35;3.90;;;2.70;;
1831;SDS011;1680;48.106;11.708;2023-07-29T00:18:03;3.13;;;2.87;;
1831;SDS011;1680;48.106;11.708;2023-07-29T00:20:30;3.63;;;2.73;;
1831;SDS011;1680;48.106;11.708;2023-07-29T00:22:57;4.03;;;2.73;;
1831;SDS011;1680;48.106;11.708;2023-07-29T00:25:24;3.40;;;2.90;;
1831;SDS011;1680;48.106;11.708;2023-07-29T00:27:52;3.20;;;2.90;;
1831;SDS011;1680;48.106;11.708;2023-07-29T00:30:19;3.57;;;3.10;;
1831;SDS011;1680;48.106;11.708;2023-07-29T00:32:47;3.20;;;2.90;;
1831;SDS011;1680;48.106;11.708;2023-07-29T00:35:14;4.00;;;3.20;;
1831;SDS011;1680;48.106;11.708;2023-07-29T00:37:42;3.40;;;3.00;;
1831;SDS011;1680;48.106;11.708;2023-07-29T00:40:12;2.83;;;2.63;;
1831;SDS011;1680;48.106;11.708;2023-07-29T00:42:42;3.20;;;2.90;;
1831;SDS011;1680;48.106;11.708;2023-07-29T00:45:09;4.30;;;3.00;;
1831;SDS011;1680;48.106;11.708;2023-07-29T00:47:37;3.33;;;3.03;;
1831;SDS011;1680;48.106;11.708;2023-07-29T00:50:06;4.40;;;2.90;;
1831;SDS011;1680;48.106;11.708;2023-07-29T00:52:35;4.70;;;3.10;;
1831;SDS011;1680;48.106;11.708;2023-07-29T00:55:03;3.13;;;2.83;;
1831;SDS011;1680;48.106;11.708;2023-07-29T00:57:31;3.20;;;2.90;;
1831;SDS011;1680;48.106;11.708;2023-07-29T00:59:59;3.00;;;2.70;;
1831;SDS011;1680;48.106;11.708;2023-07-29T01:02:26;3.07;;;2.80;;
1831;SDS011;1680;48.106;11.708;2023-07-29T01:04:55;3.40;;;3.10;;
1831;SDS011;1680;48.106;11.708;2023-07-29T01:07:27;3.60;;;3.13;;
1831;SDS011;1680;48.106;11.708;2023-07-29T01:10:01;3.30;;;3.00;;
1831;SDS011;1680;48.106;11.708;2023-07-29T01:12:34;3.10;;;2.80;;
1831;SDS011;1680;48.106;11.708;2023-07-29T01:15:08;4.37;;;2.93;;
1831;SDS011;1680;48.106;11.708;2023-07-29T01:17:40;3.70;;;2.80;;
1831;SDS011;1680;48.106;11.708;2023-07-29T01:20:10;3.50;;;3.20;;
1831;SDS011;1680;48.106;11.708;2023-07-29T01:22:41;3.23;;;2.97;;
1831;SDS011;1680;48.106;11.708;2023-07-29T01:25:10;2.97;;;2.70;;
1831;SDS011;1680;48.106;11.708;2023-07-29T01:27:37;3.03;;;2.83;;
1831;SDS011;1680;48.106;11.708;2023-07-29T01:30:05;3.20;;;2.90;;
1831;SDS011;1680;48.106;11.708;2023-07-29T01:32:35;3.67;;;2.87;;
1831;SDS011;1680;48.106;11.708;2023-07-29T01:35:10;3.70;;;3.30;;
1831;SDS011;1680;48.106;11.708;2023-07-29T01:37:42;3.47;;;2.90;;
1831;SDS011;1680;48.106;11.708;2023-07-29T01:40:16;3.20;;;2.73;;
1831;SDS011;1680;48.106;11.708;2023-07-29T01:42:44;3.43;;;3.13;;
1831;SDS011;1680;48.106;11.708;2023-07-29T01:45:12;3.60;;;3.30;;
1831;SDS011;1680;48.106;11.708;2023-07-29T01:47:39;3.30;;;3.00;;
1831;SDS011;1680;48.106;11.708;2023-07-29T01:50:07;3.10;;;2.80;;
1831;SDS011;1680;48.106;11.708;2023-07-29T01:52:35;3.17;;;2.87;;
1831;SDS011;1680;48.106;11.708;2023-07-29T01:55:02;4.00;;;3.03;;
1831;SDS011;1680;48.106;11.708;2023-07-29T01:57:30;4.13;;;2.87;;
1831;SDS011;1680;48.106;11.708;2023-07-29T01:59:58;3.57;;;2.97;;
1831;SDS011;1680;48.106;11.708;2023-07-29T02:02:25;3.43;;;3.10;;
1831;SDS011;1680;48.106;11.708;2023-07-29T02:04:52;2.77;;;2.57;;
1831;SDS011;1680;48.106;11.708;2023-07-29T02:07:20;2.63;;;2.43;;
1831;SDS011;1680;48.106;11.708;2023-07-29T02:12:19;2.73;;;2.53;;
1831;SDS011;1680;48.106;11.708;2023-07-29T02:14:47;3.33;;;3.03;;
1831;SDS011;1680;48.106;11.708;2023-07-29T02:17:15;4.20;;;2.90;;
1831;SDS011;1680;48.106;11.708;2023-07-29T02:19:42;4.07;;;2.83;;
1831;SDS011;1680;48.106;11.708;2023-07-29T02:22:10;2.83;;;2.40;;
1831;SDS011;1680;48.106;11.708;2023-07-29T02:24:39;2.83;;;2.60;;
1831;SDS011;1680;48.106;11.708;2023-07-29T02:27:06;3.03;;;2.80;;
1831;SDS011;1680;48.106;11.708;2023-07-29T02:29:33;3.60;;;3.07;;
1831;SDS011;1680;48.106;11.708;2023-07-29T02:32:03;3.80;;;2.50;;
1831;SDS011;1680;48.106;11.708;2023-07-29T02:34:30;3.30;;;3.00;;
1831;SDS011;1680;48.106;11.708;2023-07-29T02:36:57;3.10;;;2.80;;
1831;SDS011;1680;48.106;11.708;2023-07-29T02:39:24;3.23;;;2.90;;
1831;SDS011;1680;48.106;11.708;2023-07-29T02:41:51;3.87;;;2.80;;
1831;SDS011;1680;48.106;11.708;2023-07-29T02:44:20;4.13;;;2.73;;
1831;SDS011;1680;48.106;11.708;2023-07-29T02:46:47;3.70;;;3.10;;
1831;SDS011;1680;48.106;11.708;2023-07-29T02:49:16;3.40;;;2.93;;
1831;SDS011;1680;48.106;11.708;2023-07-29T02:51:43;3.17;;;2.93;;
1831;SDS011;1680;48.106;11.708;2023-07-29T02:54:10;3.10;;;2.80;;
1831;SDS011;1680;48.106;11.708;2023-07-29T02:56:37;4.60;;;2.93;;
1831;SDS011;1680;48.106;11.708;2023-07-29T02:59:04;3.17;;;2.80;;
1831;SDS011;1680;48.106;11.708;2023-07-29T03:01:31;3.17;;;2.77;;
1831;SDS011;1680;48.106;11.708;2023-07-29T03:03:58;3.60;;;2.30;;
1831;SDS011;1680;48.106;11.708;2023-07-29T03:06:27;3.20;;;2.90;;
1831;SDS011;1680;48.106;11.708;2023-07-29T03:08:54;3.00;;;2.70;;
1831;SDS011;1680;48.106;11.708;2023-07-29T03:11:21;4.67;;;2.97;;
1831;SDS011;1680;48.106;11.708;2023-07-29T03:13:48;3.60;;;2.80;;
1831;SDS011;1680;48.106;11.708;2023-07-29T03:16:16;3.00;;;2.70;;
1831;SDS011;1680;48.106;11.708;2023-07-29T03:18:44;3.20;;;2.70;;
1831;SDS011;1680;48.106;11.708;2023-07-29T03:21:11;4.80;;;2.50;;
1831;SDS011;1680;48.106;11.708;2023-07-29T03:23:40;2.80;;;2.60;;
1831;SDS011;1680;48.106;11.708;2023-07-29T03:26:07;2.67;;;2.47;;
1831;SDS011;1680;48.106;11.708;2023-07-29T03:28:36;2.97;;;2.77;;
1831;SDS011;1680;48.106;11.708;2023-07-29T03:31:06;2.97;;;2.67;;
1831;SDS011;1680;48.106;11.708;2023-07-29T03:33:33;2.77;;;2.57;;
1831;SDS011;1680;48.106;11.708;2023-07-29T03:36:00;3.37;;;2.90;;
1831;SDS011;1680;48.106;11.708;2023-07-29T03:38:27;4.10;;;2.67;;
1831;SDS011;1680;48.106;11.708;2023-07-29T03:40:56;4.03;;;2.60;;
1831;SDS011;1680;48.106;11.708;2023-07-29T03:43:23;2.73;;;2.50;;
1831;SDS011;1680;48.106;11.708;2023-07-29T03:45:50;3.00;;;2.70;;
1831;SDS011;1680;48.106;11.708;2023-07-29T03:48:18;2.97;;;2.40;;
1831;SDS011;1680;48.106;11.708;2023-07-29T03:50:45;6.10;;;3.00;;
1831;SDS011;1680;48.106;11.708;2023-07-29T03:53:12;2.60;;;2.40;;
1831;SDS011;1680;48.106;11.708;2023-07-29T03:55:39;2.77;;;2.50;;
1831;SDS011;1680;48.106;11.708;2023-07-29T03:58:07;2.80;;;2.37;;
1831;SDS011;1680;48.106;11.708;2023-07-29T04:00:34;4.30;;;2.90;;
1831;SDS011;1680;48.106;11.708;2023-07-29T04:03:01;4.13;;;2.50;;
1831;SDS011;1680;48.106;11.708;2023-07-29T04:05:29;2.50;;;2.23;;
1831;SDS011;1680;48.106;11.708;2023-07-29T04:07:56;3.53;;;2.67;;
1831;SDS011;1680;48.106;11.708;2023-07-29T04:10:23;3.20;;;2.70;;
1831;SDS011;1680;48.106;11.708;2023-07-29T04:12:50;2.67;;;2.40;;
1831;SDS011;1680;48.106;11.708;2023-07-29T04:15:19;3.00;;;2.80;;
1831;SDS011;1680;48.106;11.708;2023-07-29T04:17:46;2.77;;;2.57;;
1831;SDS011;1680;48.106;11.708;2023-07-29T04:20:13;2.70;;;2.13;;
1831;SDS011;1680;48.106;11.708;2023-07-29T04:22:40;3.53;;;2.40;;
1831;SDS011;1680;48.106;11.708;2023-07-29T04:25:07;3.27;;;2.53;;
1831;SDS011;1680;48.106;11.708;2023-07-29T04:27:35;2.77;;;2.57;;
1831;SDS011;1680;48.106;11.708;2023-07-29T04:30:02;3.00;;;2.50;;
1831;SDS011;1680;48.106;11.708;2023-07-29T04:32:31;2.30;;;2.10;;
1831;SDS011;1680;48.106;11.708;2023-07-29T04:34:58;3.20;;;2.23;;
1831;SDS011;1680;48.106;11.708;2023-07-29T04:37:25;3.27;;;2.87;;
1831;SDS011;1680;48.106;11.708;2023-07-29T04:39:52;3.10;;;2.80;;
1831;SDS011;1680;48.106;11.708;2023-07-29T04:42:19;2.60;;;2.40;;
1831;SDS011;1680;48.106;11.708;2023-07-29T04:44:46;2.73;;;2.30;;
1831;SDS011;1680;48.106;11.708;2023-07-29T04:47:14;2.77;;;2.47;;
1831;SDS011;1680;48.106;11.708;2023-07-29T04:49:42;3.60;;;2.57;;
1831;SDS011;1680;48.106;11.708;2023-07-29T04:52:09;2.83;;;2.00;;
1831;SDS011;1680;48.106;11.708;2023-07-29T04:54:36;2.53;;;2.33;;
1831;SDS011;1680;48.106;11.708;2023-07-29T04:57:04;3.20;;;2.40;;
1831;SDS011;1680;48.106;11.708;2023-07-29T04:59:31;3.10;;;2.37;;
1831;SDS011;1680;48.106;11.708;2023-07-29T05:01:59;3.00;;;2.50;;
1831;SDS011;1680;48.106;11.708;2023-07-29T05:04:26;3.47;;;2.67;;
1831;SDS011;1680;48.106;11.708;2023-07-29T05:06:54;2.50;;;2.30;;
1831;SDS011;1680;48.106;11.708;2023-07-29T05:09:21;2.87;;;2.30;;
1831;SDS011;1680;48.106;11.708;2023-07-29T05:11:49;7.10;;;2.73;;
1831;SDS011;1680;48.106;11.708;2023-07-29T05:14:16;2.60;;;2.30;;
1831;SDS011;1680;48.106;11.708;2023-07-29T05:16:44;2.83;;;2.60;;
1831;SDS011;1680;48.106;11.708;2023-07-29T05:19:12;2.90;;;2.70;;
1831;SDS011;1680;48.106;11.708;2023-07-29T05:21:40;2.90;;;2.20;;
1831;SDS011;1680;48.106;11.708;2023-07-29T05:24:09;2.43;;;2.20;;
1831;SDS011;1680;48.106;11.708;2023-07-29T05:26:36;3.87;;;2.40;;
1831;SDS011;1680;48.106;11.708;2023-07-29T05:29:03;4.20;;;2.73;;
1831;SDS011;1680;48.106;11.708;2023-07-29T05:31:30;3.17;;;2.73;;
1831;SDS011;1680;48.106;11.708;2023-07-29T05:33:58;3.17;;;2.47;;
1831;SDS011;1680;48.106;11.708;2023-07-29T05:36:25;3.43;;;2.20;;
1831;SDS011;1680;48.106;11.708;2023-07-29T05:38:52;2.50;;;2.30;;
1831;SDS011;1680;48.106;11.708;2023-07-29T05:41:20;5.00;;;2.43;;
1831;SDS011;1680;48.106;11.708;2023-07-29T05:43:48;2.03;;;1.93;;
1831;SDS011;1680;48.106;11.708;2023-07-29T05:46:15;3.53;;;2.37;;
1831;SDS011;1680;48.106;11.708;2023-07-29T05:48:42;2.97;;;2.60;;
1831;SDS011;1680;48.106;11.708;2023-07-29T05:51:09;2.40;;;2.20;;
1831;SDS011;1680;48.106;11.708;2023-07-29T05:53:36;2.10;;;1.90;;
1831;SDS011;1680;48.106;11.708;2023-07-29T05:56:03;2.33;;;2.07;;
1831;SDS011;1680;48.106;11.708;2023-07-29T05:58:32;2.30;;;2.10;;
1831;SDS011;1680;48.106;11.708;2023-07-29T06:00:59;2.33;;;2.13;;
1831;SDS011;1680;48.106;11.708;2023-07-29T06:03:26;2.10;;;1.90;;
1831;SDS011;1680;48.106;11.708;2023-07-29T06:06:02;3.60;;;2.40;;
1831;SDS011;1680;48.106;11.708;2023-07-29T06:08:29;2.53;;;2.20;;
1831;SDS011;1680;48.106;11.708;2023-07-29T06:10:59;2.00;;;1.90;;
1831;SDS011;1680;48.106;11.708;2023-07-29T06:13:26;2.27;;;2.10;;
1831;SDS011;1680;48.106;11.708;2023-07-29T06:15:55;3.00;;;2.40;;
1831;SDS011;1680;48.106;11.708;2023-07-29T06:18:22;3.17;;;2.83;;
1831;SDS011;1680;48.106;11.708;2023-07-29T06:20:49;2.60;;;2.40;;
1831;SDS011;1680;48.106;11.708;2023-07-29T06:23:17;4.43;;;2.43;;
1831;SDS011;1680;48.106;11.708;2023-07-29T06:25:44;4.37;;;2.60;;
1831;SDS011;1680;48.106;11.708;2023-07-29T06:28:11;3.10;;;2.63;;
1831;SDS011;1680;48.106;11.708;2023-07-29T06:30:38;2.80;;;2.23;;
1831;SDS011;1680;48.106;11.708;2023-07-29T06:33:07;4.67;;;2.60;;
1831;SDS011;1680;48.106;11.708;2023-07-29T06:35:34;2.83;;;2.60;;
1831;SDS011;1680;48.106;11.708;2023-07-29T06:38:01;3.30;;;2.53;;
1831;SDS011;1680;48.106;11.708;2023-07-29T06:40:28;4.33;;;2.27;;
1831;SDS011;1680;48.106;11.708;2023-07-29T06:42:56;2.90;;;2.70;;
1831;SDS011;1680;48.106;11.708;2023-07-29T06:45:23;2.60;;;2.30;;
1831;SDS011;1680;48.106;11.708;2023-07-29T06:47:51;3.60;;;1.93;;
1831;SDS011;1680;48.106;11.708;2023-07-29T06:50:21;2.30;;;2.10;;
1831;SDS011;1680;48.106;11.708;2023-07-29T06:52:48;3.40;;;2.77;;
1831;SDS011;1680;48.106;11.708;2023-07-29T06:55:15;2.37;;;2.17;;
1831;SDS011;1680;48.106;11.708;2023-07-29T06:57:43;3.27;;;2.50;;
1831;SDS011;1680;48.106;11.708;2023-07-29T07:00:10;3.40;;;1.97;;
1831;SDS011;1680;48.106;11.708;2023-07-29T07:02:37;2.43;;;2.23;;
1831;SDS011;1680;48.106;11.708;2023-07-29T07:05:04;2.50;;;2.30;;
1831;SDS011;1680;48.106;11.708;2023-07-29T07:07:36;3.17;;;2.47;;
1831;SDS011;1680;48.106;11.708;2023-07-29T07:10:03;3.50;;;2.50;;
1831;SDS011;1680;48.106;11.708;2023-07-29T07:12:31;3.40;;;2.30;;
1831;SDS011;1680;48.106;11.708;2023-07-29T07:14:59;2.40;;;2.07;;
1831;SDS011;1680;48.106;11.708;2023-07-29T07:17:26;2.43;;;2.20;;
1831;SDS011;1680;48.106;11.708;2023-07-29T07:19:54;3.10;;;2.73;;
1831;SDS011;1680;48.106;11.708;2023-07-29T07:22:21;2.70;;;2.40;;
1831;SDS011;1680;48.106;11.708;2023-07-29T07:24:50;3.47;;;2.50;;
1831;SDS011;1680;48.106;11.708;2023-07-29T07:27:17;2.47;;;2.27;;
1831;SDS011;1680;48.106;11.708;2023-07-29T07:29:44;4.37;;;2.80;;
1831;SDS011;1680;48.106;11.708;2023-07-29T07:32:12;2.73;;;2.43;;
1831;SDS011;1680;48.106;11.708;2023-07-29T07:34:39;3.93;;;2.63;;
1831;SDS011;1680;48.106;11.708;2023-07-29T07:37:06;2.70;;;2.50;;
1831;SDS011;1680;48.106;11.708;2023-07-29T07:39:33;3.00;;;2.50;;
1831;SDS011;1680;48.106;11.708;2023-07-29T07:42:02;3.93;;;2.67;;
1831;SDS011;1680;48.106;11.708;2023-07-29T07:44:29;4.70;;;3.00;;
1831;SDS011;1680;48.106;11.708;2023-07-29T07:46:56;2.83;;;2.47;;
1831;SDS011;1680;48.106;11.708;2023-07-29T07:49:23;2.40;;;2.23;;
1831;SDS011;1680;48.106;11.708;2023-07-29T07:51:50;4.83;;;2.80;;
1831;SDS011;1680;48.106;11.708;2023-07-29T07:54:17;2.63;;;2.43;;
1831;SDS011;1680;48.106;11.708;2023-07-29T07:56:44;3.63;;;2.87;;
1831;SDS011;1680;48.106;11.708;2023-07-29T07:59:13;2.77;;;2.57;;
1831;SDS011;1680;48.106;11.708;2023-07-29T08:01:40;3.67;;;2.90;;
1831;SDS011;1680;48.106;11.708;2023-07-29T08:04:07;3.40;;;2.87;;
1831;SDS011;1680;48.106;11.708;2023-07-29T08:06:34;3.30;;;3.07;;
1831;SDS011;1680;48.106;11.708;2023-07-29T08:09:01;3.33;;;3.00;;
1831;SDS011;1680;48.106;11.708;2023-07-29T08:11:29;3.43;;;3.13;;
1831;SDS011;1680;48.106;11.708;2023-07-29T08:13:56;3.37;;;3.03;;
1831;SDS011;1680;48.106;11.708;2023-07-29T08:16:24;3.00;;;2.70;;
1831;SDS011;1680;48.106;11.708;2023-07-29T08:18:52;3.27;;;2.97;;
1831;SDS011;1680;48.106;11.708;2023-07-29T08:21:19;3.57;;;3.27;;
1831;SDS011;1680;48.106;11.708;2023-07-29T08:23:46;3.00;;;2.70;;
1831;SDS011;1680;48.106;11.708;2023-07-29T08:26:13;3.83;;;3.43;;
1831;SDS011;1680;48.106;11.708;2023-07-29T08:28:41;3.90;;;3.13;;
1831;SDS011;1680;48.106;11.708;2023-07-29T08:31:09;3.50;;;3.20;;
1831;SDS011;1680;48.106;11.708;2023-07-29T08:33:37;3.40;;;3.03;;
1831;SDS011;1680;48.106;11.708;2023-07-29T08:36:04;3.60;;;3.30;;
1831;SDS011;1680;48.106;11.708;2023-07-29T08:38:31;3.40;;;3.10;;
1831;SDS011;1680;48.106;11.708;2023-07-29T08:41:00;5.53;;;3.30;;
1831;SDS011;1680;48.106;11.708;2023-07-29T08:43:38;4.20;;;3.20;;
1831;SDS011;1680;48.106;11.708;2023-07-29T08:46:10;3.00;;;2.80;;
1831;SDS011;1680;48.106;11.708;2023-07-29T08:48:41;4.03;;;2.77;;
1831;SDS011;1680;48.106;11.708;2023-07-29T08:51:09;3.23;;;2.87;;
1831;SDS011;1680;48.106;11.708;2023-07-29T08:53:37;3.40;;;3.10;;
1831;SDS011;1680;48.106;11.708;2023-07-29T08:56:05;3.27;;;2.97;;
1831;SDS011;1680;48.106;11.708;2023-07-29T08:58:33;3.43;;;2.83;;
1831;SDS011;1680;48.106;11.708;2023-07-29T09:01:01;3.50;;;3.20;;
1831;SDS011;1680;48.106;11.708;2023-07-29T09:03:28;4.00;;;2.93;;
1831;SDS011;1680;48.106;11.708;2023-07-29T09:05:57;3.30;;;3.00;;
1831;SDS011;1680;48.106;11.708;2023-07-29T09:08:25;3.30;;;3.00;;
1831;SDS011;1680;48.106;11.708;2023-07-29T09:10:53;3.17;;;2.87;;
1831;SDS011;1680;48.106;11.708;2023-07-29T09:13:22;3.20;;;2.90;;
1831;SDS011;1680;48.106;11.708;2023-07-29T09:15:49;3.27;;;2.97;;
1831;SDS011;1680;48.106;11.708;2023-07-29T09:18:20;3.70;;;3.40;;
1831;SDS011;1680;48.106;11.708;2023-07-29T09:20:48;3.47;;;3.03;;
1831;SDS011;1680;48.106;11.708;2023-07-29T09:23:17;3.10;;;2.90;;
1831;SDS011;1680;48.106;11.708;2023-07-29T09:25:45;3.40;;;3.10;;
1831;SDS011;1680;48.106;11.708;2023-07-29T09:28:13;4.80;;;4.40;;
1831;SDS011;1680;48.106;11.708;2023-07-29T09:30:44;4.03;;;3.70;;
1831;SDS011;1680;48.106;11.708;2023-07-29T09:33:12;6.30;;;5.80;;
1831;SDS011;1680;48.106;11.708;2023-07-29T09:35:39;5.10;;;4.70;;
1831;SDS011;1680;48.106;11.708;2023-07-29T09:38:06;4.43;;;4.13;;
1831;SDS011;1680;48.106;11.708;2023-07-29T09:40:36;4.40;;;3.60;;
1831;SDS011;1680;48.106;11.708;2023-07-29T09:43:08;3.97;;;3.63;;
1831;SDS011;1680;48.106;11.708;2023-07-29T09:45:36;4.03;;;3.73;;
1831;SDS011;1680;48.106;11.708;2023-07-29T09:48:06;4.17;;;3.77;;
1831;SDS011;1680;48.106;11.708;2023-07-29T09:50:35;4.43;;;3.60;;
1831;SDS011;1680;48.106;11.708;2023-07-29T09:53:02;3.77;;;3.47;;
1831;SDS011;1680;48.106;11.708;2023-07-29T09:55:32;3.80;;;3.50;;
1831;SDS011;1680;48.106;11.708;2023-07-29T09:58:01;4.03;;;3.63;;
1831;SDS011;1680;48.106;11.708;2023-07-29T10:00:33;4.57;;;4.10;;
1831;SDS011;1680;48.106;11.708;2023-07-29T10:03:00;4.03;;;3.70;;
1831;SDS011;1680;48.106;11.708;2023-07-29T10:05:28;3.83;;;3.53;;
1831;SDS011;1680;48.106;11.708;2023-07-29T10:07:56;4.20;;;3.67;;
1831;SDS011;1680;48.106;11.708;2023-07-29T10:10:24;3.63;;;3.33;;
1831;SDS011;1680;48.106;11.708;2023-07-29T10:12:54;4.40;;;4.00;;
1831;SDS011;1680;48.106;11.708;2023-07-29T10:15:24;4.33;;;3.73;;
1831;SDS011;1680;48.106;11.708;2023-07-29T10:17:52;6.83;;;3.43;;
1831;SDS011;1680;48.106;11.708;2023-07-29T10:20:20;4.87;;;4.10;;
1831;SDS011;1680;48.106;11.708;2023-07-29T10:22:48;8.30;;;7.50;;
1831;SDS011;1680;48.106;11.708;2023-07-29T10:25:18;4.90;;;3.80;;
1831;SDS011;1680;48.106;11.708;2023-07-29T10:27:49;4.37;;;3.97;;
1831;SDS011;1680;48.106;11.708;2023-07-29T10:30:21;4.43;;;4.03;;
1831;SDS011;1680;48.106;11.708;2023-07-29T10:32:50;3.80;;;3.50;;
1831;SDS011;1680;48.106;11.708;2023-07-29T10:35:18;4.07;;;3.63;;
1831;SDS011;1680;48.106;11.708;2023-07-29T10:37:46;4.10;;;3.70;;
1831;SDS011;1680;48.106;11.708;2023-07-29T10:40:16;3.50;;;3.20;;
1831;SDS011;1680;48.106;11.708;2023-07-29T10:45:36;4.23;;;3.93;;
1831;SDS011;1680;48.106;11.708;2023-07-29T10:48:06;4.20;;;3.90;;
1831;SDS011;1680;48.106;11.708;2023-07-29T10:50:37;4.97;;;4.47;;
1831;SDS011;1680;48.106;11.708;2023-07-29T10:53:04;4.20;;;3.80;;
1831;SDS011;1680;48.106;11.708;2023-07-29T10:55:32;3.47;;;3.23;;
1831;SDS011;1680;48.106;11.708;2023-07-29T10:58:05;3.87;;;3.57;;
1831;SDS011;1680;48.106;11.708;2023-07-29T11:00:34;3.77;;;3.47;;
1831;SDS011;1680;48.106;11.708;2023-07-29T11:03:02;4.00;;;3.70;;
1831;SDS011;1680;48.106;11.708;2023-07-29T11:05:45;4.00;;;3.70;;
1831;SDS011;1680;48.106;11.708;2023-07-29T11:08:16;4.37;;;3.97;;
1831;SDS011;1680;48.106;11.708;2023-07-29T11:10:44;4.77;;;4.40;;
1831;SDS011;1680;48.106;11.708;2023-07-29T11:13:26;4.17;;;3.87;;
1831;SDS011;1680;48.106;11.708;2023-07-29T11:15:54;4.00;;;3.60;;
1831;SDS011;1680;48.106;11.708;2023-07-29T11:18:23;4.40;;;4.00;;
1831;SDS011;1680;48.106;11.708;2023-07-29T11:20:57;4.00;;;3.70;;
1831;SDS011;1680;48.106;11.708;2023-07-29T11:23:29;4.07;;;3.77;;
1831;SDS011;1680;48.106;11.708;2023-07-29T11:25:57;5.23;;;4.30;;
1831;SDS011;1680;48.106;11.708;2023-07-29T11:28:25;4.60;;;4.20;;
1831;SDS011;1680;48.106;11.708;2023-07-29T11:30:53;4.13;;;3.80;;
1831;SDS011;1680;48.106;11.708;2023-07-29T11:33:21;4.43;;;4.03;;
1831;SDS011;1680;48.106;11.708;2023-07-29T11:35:50;3.30;;;3.00;;
1831;SDS011;1680;48.106;11.708;2023-07-29T11:38:19;3.30;;;3.00;;
1831;SDS011;1680;48.106;11.708;2023-07-29T11:40:58;3.03;;;2.83;;
1831;SDS011;1680;48.106;11.708;2023-07-29T11:43:28;3.00;;;2.70;;
1831;SDS011;1680;48.106;11.708;2023-07-29T11:45:55;2.70;;;2.50;;
1831;SDS011;1680;48.106;11.708;2023-07-29T11:48:28;2.60;;;2.23;;
1831;SDS011;1680;48.106;11.708;2023-07-29T11:50:58;2.73;;;2.53;;
1831;SDS011;1680;48.106;11.708;2023-07-29T11:53:27;2.63;;;2.43;;
1831;SDS011;1680;48.106;11.708;2023-07-29T11:55:55;2.77;;;2.57;;
1831;SDS011;1680;48.106;11.708;2023-07-29T11:58:23;3.37;;;3.07;;
1831;SDS011;1680;48.106;11.708;2023-07-29T12:00:51;3.13;;;2.83;;
1831;SDS011;1680;48.106;11.708;2023-07-29T12:03:18;3.00;;;2.80;;
1831;SDS011;1680;48.106;11.708;2023-07-29T12:05:45;3.87;;;2.93;;
1831;SDS011;1680;48.106;11.708;2023-07-29T12:08:13;3.73;;;3.43;;
1831;SDS011;1680;48.106;11.708;2023-07-29T12:10:42;2.70;;;2.50;;
1831;SDS011;1680;48.106;11.708;2023-07-29T12:13:09;3.00;;;2.80;;
1831;SDS011;1680;48.106;11.708;2023-07-29T12:15:37;2.80;;;2.60;;
1831;SDS011;1680;48.106;11.708;2023-07-29T12:18:06;3.50;;;2.90;;
1831;SDS011;1680;48.106;11.708;2023-07-29T12:20:33;3.40;;;3.20;;
1831;SDS011;1680;48.106;11.708;2023-07-29T12:23:01;3.40;;;3.10;;
1831;SDS011;1680;48.106;11.708;2023-07-29T12:25:31;3.13;;;2.93;;
1831;SDS011;1680;48.106;11.708;2023-07-29T12:28:03;11.20;;;3.50;;
1831;SDS011;1680;48.106;11.708;2023-07-29T12:30:40;3.13;;;2.93;;
1831;SDS011;1680;48.106;11.708;2023-07-29T12:33:08;3.30;;;3.10;;
1831;SDS011;1680;48.106;11.708;2023-07-29T12:35:36;3.67;;;3.37;;
1831;SDS011;1680;48.106;11.708;2023-07-29T12:38:03;3.70;;;3.40;;
1831;SDS011;1680;48.106;11.708;2023-07-29T12:40:30;3.63;;;3.33;;
1831;SDS011;1680;48.106;11.708;2023-07-29T12:42:58;3.70;;;3.40;;
1831;SDS011;1680;48.106;11.708;2023-07-29T12:45:26;4.83;;;3.20;;
1831;SDS011;1680;48.106;11.708;2023-07-29T12:47:53;3.53;;;3.23;;
1831;SDS011;1680;48.106;11.708;2023-07-29T12:50:21;3.03;;;2.83;;
1831;SDS011;1680;48.106;11.708;2023-07-29T12:52:48;3.80;;;3.37;;
1831;SDS011;1680;48.106;11.708;2023-07-29T12:55:15;4.00;;;3.70;;
1831;SDS011;1680;48.106;11.708;2023-07-29T12:57:42;3.07;;;2.87;;
1831;SDS011;1680;48.106;11.708;2023-07-29T13:00:10;3.80;;;3.40;;
1831;SDS011;1680;48.106;11.708;2023-07-29T13:02:39;4.07;;;3.77;;
1831;SDS011;1680;48.106;11.708;2023-07-29T13:05:09;3.90;;;3.20;;
1831;SDS011;1680;48.106;11.708;2023-07-29T13:07:37;3.70;;;3.40;;
1831;SDS011;1680;48.106;11.708;2023-07-29T13:10:04;3.40;;;3.10;;
1831;SDS011;1680;48.106;11.708;2023-07-29T13:12:32;3.70;;;2.30;;
1831;SDS011;1680;48.106;11.708;2023-07-29T13:14:59;2.40;;;2.20;;
1831;SDS011;1680;48.106;11.708;2023-07-29T13:17:26;3.00;;;2.70;;
1831;SDS011;1680;48.106;11.708;2023-07-29T13:19:55;3.00;;;2.80;;
1831;SDS011;1680;48.106;11.708;2023-07-29T13:22:28;3.83;;;2.63;;
1831;SDS011;1680;48.106;11.708;2023-07-29T13:24:55;4.53;;;3.17;;
1831;SDS011;1680;48.106;11.708;2023-07-29T13:27:22;3.20;;;2.80;;
1831;SDS011;1680;48.106;11.708;2023-07-29T13:29:50;5.57;;;4.03;;
1831;SDS011;1680;48.106;11.708;2023-07-29T13:32:18;5.10;;;3.17;;
1831;SDS011;1680;48.106;11.708;2023-07-29T13:34:46;8.50;;;4.43;;
1831;SDS011;1680;48.106;11.708;2023-07-29T13:37:16;4.90;;;4.50;;
1831;SDS011;1680;48.106;11.708;2023-07-29T13:39:43;4.63;;;4.13;;
1831;SDS011;1680;48.106;11.708;2023-07-29T13:42:10;4.67;;;4.27;;
1831;SDS011;1680;48.106;11.708;2023-07-29T13:44:40;4.60;;;4.20;;
1831;SDS011;1680;48.106;11.708;2023-07-29T13:47:14;5.17;;;4.30;;
1831;SDS011;1680;48.106;11.708;2023-07-29T13:49:42;4.27;;;3.87;;
1831;SDS011;1680;48.106;11.708;2023-07-29T13:52:13;4.20;;;3.90;;
1831;SDS011;1680;48.106;11.708;2023-07-29T13:54:42;4.60;;;4.20;;
1831;SDS011;1680;48.106;11.708;2023-07-29T13:57:09;4.77;;;4.37;;
1831;SDS011;1680;48.106;11.708;2023-07-29T13:59:43;5.00;;;4.60;;
1831;SDS011;1680;48.106;11.708;2023-07-29T14:02:10;4.80;;;4.40;;
1831;SDS011;1680;48.106;11.708;2023-07-29T14:04:37;4.90;;;4.30;;
1831;SDS011;1680;48.106;11.708;2023-07-29T14:07:04;5.60;;;5.10;;
1831;SDS011;1680;48.106;11.708;2023-07-29T14:09:31;4.73;;;4.10;;
1831;SDS011;1680;48.106;11.708;2023-07-29T14:12:00;5.10;;;4.60;;
1831;SDS011;1680;48.106;11.708;2023-07-29T14:14:27;4.33;;;3.93;;
1831;SDS011;1680;48.106;11.708;2023-07-29T14:16:54;4.70;;;4.20;;
1831;SDS011;1680;48.106;11.708;2023-07-29T14:19:21;4.60;;;4.20;;
1831;SDS011;1680;48.106;11.708;2023-07-29T14:21:49;4.50;;;4.10;;
1831;SDS011;1680;48.106;11.708;2023-07-29T14:24:16;4.83;;;4.40;;
1831;SDS011;1680;48.106;11.708;2023-07-29T14:26:45;4.93;;;4.53;;
1831;SDS011;1680;48.106;11.708;2023-07-29T14:29:13;4.33;;;3.93;;
1831;SDS011;1680;48.106;11.708;2023-07-29T14:31:40;7.00;;;4.30;;
1831;SDS011;1680;48.106;11.708;2023-07-29T14:34:07;4.70;;;4.30;;
1831;SDS011;1680;48.106;11.708;2023-07-29T14:36:36;4.30;;;3.97;;
1831;SDS011;1680;48.106;11.708;2023-07-29T14:39:03;3.97;;;3.67;;
1831;SDS011;1680;48.106;11.708;2023-07-29T14:41:30;5.20;;;4.70;;
1831;SDS011;1680;48.106;11.708;2023-07-29T14:43:58;4.70;;;4.30;;
1831;SDS011;1680;48.106;11.708;2023-07-29T14:46:26;4.90;;;4.50;;
1831;SDS011;1680;48.106;11.708;2023-07-29T14:48:53;4.57;;;4.27;;
1831;SDS011;1680;48.106;11.708;2023-07-29T14:51:22;5.10;;;4.60;;
1831;SDS011;1680;48.106;11.708;2023-07-29T14:53:50;4.23;;;3.93;;
1831;SDS011;1680;48.106;11.708;2023-07-29T14:56:18;4.37;;;4.07;;
1831;SDS011;1680;48.106;11.708;2023-07-29T14:58:45;4.20;;;3.70;;
1831;SDS011;1680;48.106;11.708;2023-07-29T15:01:14;4.77;;;4.00;;
1831;SDS011;1680;48.106;11.708;2023-07-29T15:03:43;8.90;;;4.00;;
1831;SDS011;1680;48.106;11.708;2023-07-29T15:06:10;4.27;;;3.87;;
1831;SDS011;1680;48.106;11.708;2023-07-29T15:08:37;3.90;;;3.60;;
1831;SDS011;1680;48.106;11.708;2023-07-29T15:11:04;4.60;;;4.20;;